Twin Hills, Oklahoma
Current Conditions -  °F | °C
As of 8:55 AM on Saturday 01 Nov 2014 (Local Time) from KOKM Reporting Station
Clear Clear  
Wind Chill: 32°   Ceiling: Unl
Heat Index: 32°   Visibility: 10mi
Dew Point: 26°   Wind: 3mph
Humidity: 78%   Direction: 80°E
Pressure: 30.46"   Gusts: NA
Location:  35.6454°N, 96.0285°W
Report Text: KOKM 011355Z AUTO 08003KT 10SM CLR 00/M03 A3046 RMK AO2 T00021033
Loading
Personal Weather Stations






























Interactive Weather Map
Tropical Storm Tracking
New forecast layout! Learn more

10-Day Weather Forecast

Advertisements
Track Severe Weather on mobile